< < Back
Terminal Aerodrome Forecast


Current Version              Previous Versions:   1  2  3  4  5  6  7  8  9  

Terminal Aerodrome Forecast

020
FTUS44 KBMX 050520
TAFMGM
TAF
KMGM 050520Z 0506/0606 00000KT P6SM SCT250
      TEMPO 0509/0512 4SM BR
     FM051400 09004KT P6SM FEW030=



Latest METAR

793
SAUS80 KWBC 051000 RRA
MTRMGM
METAR KMGM 050953Z 00000KT 4SM BR CLR 23/22 A2999 RMK AO2 SLP153
T02330217


USA.gov is the U.S. government's official web portal to all federal, state and local government web resources and services.